Statewide Weather Sensors

Route Weather Station Name Milepost Date / Time Surface Status Surface Temp Precip Intensity Wind Avg Wind Gust Dir Dewpoint Humidity Air Temp Visibility
I 25 Wyo Hill 3.52 Dec 9, 2023, 12:26 AM     None None 17 mph 23 mph N 15.8°F 87% 19.4°F > 1/2 mi
I 25 Whitaker 28.1 Dec 9, 2023, 12:26 AM N/A   Snow None 12 mph 17 mph NW 17.6°F 85% 21.2°F > 1/2 mi
I 25 Bear Creek 46.77 Dec 9, 2023, 12:26 AM Dry 28.9°F None None 18 mph 24 mph N 19.4°F 77% 24.8°F > 1/2 mi
I 25 Bordeaux 70.8 Dec 9, 2023, 12:26 AM Dry 31.3°F None None 11 mph 18 mph NW 21.2°F 73% 28.4°F > 1/2 mi
I 25 Coleman 98.7 Dec 9, 2023, 12:26 AM Dry 30.2°F None None 18 mph 25 mph N 23.0°F 76% 28.4°F > 1/2 mi
I 25 Platte/Converse County Line 119.9 Dec 9, 2023, 12:26 AM Dry 28.2°F None None 8 mph 11 mph S 24.8°F 79% 30.2°F < 1/4 mi
I 25 Deer Creek 164.2 Dec 9, 2023, 12:26 AM Dry 32.2°F None None 10 mph 14 mph N 21.2°F 75% 28.4°F > 1/2 mi
I 25 Hat Six 181.67 Dec 9, 2023, 12:26 AM Dry 26.2°F None 5 mph 9 mph N 21.2°F 75% 28.4°F  
I 25 F Street Hill 189.51 Dec 9, 2023, 12:26 AM Dry 32.7°F Snow None 3 mph 7 mph N 21.2°F 76% 28.4°F > 1/2 mi
I 25 Twenty Mile Hill 207.2 Dec 9, 2023, 12:26 AM N/A   None None 7 mph 11 mph NW 23.0°F 89% 24.8°F > 1/2 mi
I 25 Smokey Gap 228.58 Dec 9, 2023, 12:26 AM Dry 29.8°F None None 6 mph 11 mph NW 24.8°F 88% 26.6°F > 1/2 mi
I 25 Tisdale 238.87 Dec 9, 2023, 12:26 AM Dry 25.9°F None None 7 mph 9 mph NW 24.8°F 88% 26.6°F > 1/2 mi
I 25 I-25 Divide 267.3 Dec 9, 2023, 12:26 AM Dry 28.0°F None None 4 mph 8 mph N 23.0°F 90% 24.8°F > 1/2 mi
I 80 Evanston POE 0.06 Dec 9, 2023, 12:26 AM N/A 158.0°F None None 5 mph 13 mph SW 10.4°F 78% 15.8°F > 1/2 mi
I 80 Evanston 4.2 Dec 9, 2023, 12:26 AM N/A   None None 6 mph 9 mph S 14.0°F 82% 17.6°F > 1/2 mi
I 80 Bear River Drive 6.94 Aug 18, 2022, 05:58 AM                      
I 80 Painter 10.16 Dec 9, 2023, 12:26 AM Ice Watch 21.2°F None 6 mph 9 mph W   NaN%    
I 80 First Divide 13.86 Dec 9, 2023, 12:26 AM Ice Watch 17.8°F Snow None 13 mph 16 mph SW 10.4°F 87% 14.0°F > 1/2 mi
I 80 US 189 Interchange 17.66 Dec 9, 2023, 12:26 AM Ice Watch 18.9°F Snow None 14 mph 16 mph W 10.4°F 78% 15.8°F > 1/2 mi
I 80 Coal Road 20.95 Dec 9, 2023, 12:26 AM Ice Watch 16.7°F Snow None 12 mph 16 mph W 10.4°F 82% 15.8°F > 1/2 mi
I 80 Leroy 23.35 Dec 9, 2023, 12:26 AM Ice Watch 21.0°F None None 6 mph 9 mph SW 12.2°F 78% 17.6°F > 1/2 mi
I 80 French 27.6 Dec 9, 2023, 12:26 AM Ice Warning 20.7°F Snow None 12 mph 16 mph W 12.2°F 84% 15.8°F > 1/2 mi
I 80 Church Butte 52.65 Dec 9, 2023, 12:26 AM Ice Warning 21.9°F None 12 mph 17 mph SW 15.8°F 91% 19.4°F  
I 80 Peru Hill 82.31 Dec 9, 2023, 12:26 AM Ice Watch 24.4°F Snow None 9 mph 14 mph SW 17.6°F 91% 21.2°F > 1/2 mi
I 80 Green River Tunnel 90.5 Dec 9, 2023, 12:26 AM Ice Watch 26.1°F Snow None 9 mph 15 mph SW 17.6°F 87% 21.2°F > 1/2 mi
I 80 Rock Springs West 97.9 Dec 9, 2023, 12:26 AM N/A   Snow Slight 11 mph 16 mph SW 19.4°F 89% 21.2°F > 1/2 mi
I 80 Baxter Road 111.5 Dec 9, 2023, 12:26 AM Ice Warning 26.8°F Snow None 9 mph 9 mph SW -7.6°F 91% -5.8°F > 1/2 mi
I 80 Mile Marker 124.5 124.5 Dec 9, 2023, 12:26 AM Snow Watch 23.9°F Snow None 4 mph 7 mph SW 19.4°F 94% 21.2°F > 1/2 mi
I 80 Point of Rocks 129.8 Dec 9, 2023, 12:26 AM Trace Moisture 23.2°F Snow None 6 mph 11 mph S   NaN% 21.2°F > 1/2 mi
I 80 Black Butte 134.91 Dec 9, 2023, 12:26 AM Snow Watch 25.0°F None None 8 mph 15 mph NW 17.6°F 89% 21.2°F > 1/2 mi
I 80 Bitter Creek 141.83 Dec 9, 2023, 12:26 AM N/A 158.0°F None None 9 mph 11 mph NW 19.4°F NaN% 19.4°F > 1/2 mi
I 80 Tipton 156.72 Dec 9, 2023, 12:26 AM Trace Moisture 21.9°F None None 0 mph 0 mph W 15.8°F 96% 17.6°F > 1/2 mi
I 80 Continental Divide 184.3 Dec 9, 2023, 12:26 AM Ice Watch 19.9°F None None 7 mph 11 mph N 14.0°F 91% 15.8°F > 1/2 mi
I 80 Sinclair 221.7 Dec 9, 2023, 12:26 AM N/A   None None 3 mph 6 mph NW 15.8°F 84% 19.4°F > 1/2 mi
I 80 Walcott Junction 234.66 Dec 9, 2023, 12:26 AM Trace Moisture 20.1°F None None 2 mph 4 mph NW 14.0°F 96% 15.8°F > 1/2 mi
I 80 Dana Ridge 244.8 Dec 9, 2023, 12:26 AM Chemically Wet 19.2°F None None 12 mph 14 mph E 12.2°F 93% 14.0°F > 1/2 mi
I 80 Mile Marker 249.1 249.1 Dec 9, 2023, 12:26 AM Chemically Wet 17.6°F None None 7 mph 9 mph E 12.2°F 89% 15.8°F > 1/2 mi
I 80 Halleck Ridge 252.16 Dec 9, 2023, 12:26 AM Snow Watch 21.2°F None None 0 mph 0 mph SE 12.2°F 80% 17.6°F > 1/2 mi
I 80 Elk Mountain 256.17 Dec 9, 2023, 12:26 AM Wet 19.9°F None None 2 mph 5 mph W 8.6°F 82% 12.2°F > 1/2 mi
I 80 County Road 402 262 Dec 9, 2023, 12:26 AM Ice Warning 21.4°F None None 2 mph 3 mph SW 14.0°F 87% 17.6°F > 1/2 mi
I 80 Wagonhound 266.58 Dec 9, 2023, 12:26 AM Trace Moisture 21.0°F None None 3 mph 4 mph N 12.2°F 86% 15.8°F > 1/2 mi
I 80 Foote Creek 269.5 Dec 9, 2023, 12:26 AM Snow Watch 20.7°F None None 9 mph 11 mph SW 12.2°F 85% 15.8°F > 1/2 mi
I 80 Arlington 271.8 Dec 9, 2023, 12:26 AM Snow Warning 19.2°F None None 1 mph 4 mph NW 12.2°F 83% 17.6°F > 1/2 mi
I 80 Arlington East 273.85 Dec 9, 2023, 12:26 AM Snow Watch 21.2°F None None 9 mph 14 mph NW 12.2°F 82% 15.8°F > 1/2 mi
I 80 Cooper Cove 279.36 Dec 9, 2023, 12:26 AM Chemically Wet 23.0°F None None 11 mph 15 mph SW 14.0°F 81% 17.6°F > 1/2 mi
I 80 Strouss Hill 283.75 Dec 9, 2023, 12:26 AM N/A   None None 13 mph 19 mph NW 12.2°F 82% 17.6°F > 1/2 mi
I 80 Quealy Dome 289.5 Dec 9, 2023, 12:26 AM Dry 22.1°F None None 14 mph 18 mph NW 14.0°F 79% 19.4°F > 1/2 mi
I 80 Herrick Lane 297.66 Dec 9, 2023, 12:26 AM Dry 23.9°F None None 8 mph 12 mph W 12.2°F 80% 17.6°F > 1/2 mi
I 80 Summit East 325.8 Dec 9, 2023, 12:26 AM Snow Warning 12.0°F None None 16 mph 24 mph NW 8.6°F 85% 12.2°F > 1/2 mi
I 80 Vedauwoo 329.4 Dec 9, 2023, 12:26 AM Chemically Wet 11.7°F None None 14 mph 19 mph W 8.6°F 82% 12.2°F > 1/2 mi
I 80 Lone Tree 333.32 Dec 9, 2023, 12:26 AM Dry 19.0°F None None 7 mph 9 mph NW 10.4°F 82% 14.0°F > 1/2 mi
I 80 Buford East 336.1 Dec 9, 2023, 12:26 AM Dry 19.9°F Snow None 9 mph 12 mph NW 12.2°F 82% 15.8°F > 1/2 mi
I 80 Remount Road 340.5 Dec 9, 2023, 12:26 AM Dry 22.5°F None None 6 mph 9 mph W 12.2°F 89% 14.0°F > 1/2 mi
I 80 Otto 347.69 Dec 9, 2023, 12:26 AM N/A   None None 13 mph 21 mph N 14.0°F 89% 17.6°F > 1/2 mi
I 80 MP 353 353 Dec 9, 2023, 12:26 AM Ice Watch 23.4°F None None 13 mph 18 mph NW 15.8°F 85% 19.4°F > 1/2 mi
I 80 Cheyenne East 373 Dec 9, 2023, 12:26 AM Dry 27.1°F None None 17 mph 27 mph NW 17.6°F 73% 24.8°F > 1/2 mi
I 90 Montana State Line 0.1 Dec 9, 2023, 12:26 AM Trace Moisture 29.1°F None None 9 mph 11 mph NW 28.4°F 95% 28.4°F > 1/2 mi
I 90 Pompey Creek 35.3 Dec 9, 2023, 12:26 AM Snow Warning 28.9°F Snow None 14 mph 20 mph NW 24.8°F 83% 28.4°F > 1/2 mi
I 90 Sheridan/Johnson County Line 41.33 Jan 29, 2023, 07:04 PM                      
I 90 Piney Creek Interchange 44.7 Dec 9, 2023, 12:26 AM N/A 28.8°F None 10 mph 16 mph NW 28.4°F 99% 28.4°F  
I 90 Kearny Divide 45.33 Aug 25, 2023, 12:02 PM                      
I 90 Indian Creek Road 83.3 Dec 9, 2023, 12:26 AM N/A   None None NaN mph NaN mph SW   NaN%   > 1/2 mi
I 90 Dead Horse 91.5 Dec 9, 2023, 12:26 AM Trace Moisture 32.7°F None None 3 mph 6 mph NW 30.2°F 95% 30.2°F > 1/2 mi
I 90 Mile Marker 108 108 Dec 9, 2023, 12:26 AM Dry 28.2°F None None 11 mph 14 mph NW 24.8°F 95% 26.6°F > 1/2 mi
I 90 Inyan Kara 170.5 Dec 9, 2023, 12:26 AM Ice Watch 24.6°F None 12 mph 16 mph NW 24.8°F 99% 24.8°F  
I 90 Beulah 205.9 Dec 9, 2023, 12:26 AM Dry 29.1°F None None 9 mph 11 mph W 19.4°F 75% 26.6°F > 1/2 mi
US 14 Ucross 27.83 Dec 9, 2023, 12:26 AM Dry 28.6°F None None 2 mph 7 mph W 26.6°F 84% 30.2°F > 1/2 mi
US 14 Granite Pass 38.95 Dec 9, 2023, 12:26 AM N/A   None 12 mph 19 mph S 12.2°F 99% 12.2°F < 1/4 mi
US 14 Sunny Divide 185.89 Dec 9, 2023, 12:26 AM     None None NaN mph NaN mph N 19.4°F 86% 23.0°F > 1/2 mi
US 16 Big Horn County Line 44.01 Dec 9, 2023, 12:26 AM N/A   None None NaN mph NaN mph N -5.8°F 81% -0.4°F > 1/2 mi
US 191 Farson 40.45 Dec 9, 2023, 12:26 AM Ice Watch 22.6°F Snow None 0 mph 0 mph S 14.0°F 88% 17.6°F > 1/2 mi
US 191 Warren Bridge 119.9 Dec 9, 2023, 12:26 AM N/A   None None 12 mph 16 mph W 12.2°F 79% 17.6°F > 1/2 mi
US 20 Natrona 30 Dec 9, 2023, 12:26 AM N/A   None None 6 mph 7 mph W 19.4°F 91% 21.2°F > 1/2 mi
US 20 Hiland 57.4 Dec 9, 2023, 12:26 AM Dry 24.4°F None None 9 mph 11 mph W 19.4°F 86% 23.0°F > 1/2 mi
US 20 Van Tassell 57.85 Dec 9, 2023, 12:26 AM N/A 22.3°F None None 14 mph 20 mph N 19.4°F 81% 24.8°F > 1/2 mi
US 26 Wind River Lake 26.05 Dec 9, 2023, 12:26 AM Ice Warning 18.9°F Snow None 9 mph 12 mph N 5.0°F 88% 6.8°F > 1/2 mi
US 287 Pumpkin Vine 420.4 Dec 9, 2023, 12:26 AM N/A 19.8°F Snow None 16 mph 20 mph N 14.0°F 92% 14.0°F > 1/2 mi
US 30 Sage Junction 34 Dec 9, 2023, 12:26 AM Dry 21.7°F None None 2 mph 5 mph NW 14.0°F 90% 15.8°F > 1/2 mi
US 30 Nugget Canyon 39.7 Dec 9, 2023, 12:26 AM Snow Watch 18.5°F None None 3 mph 17 mph N 14.0°F 85% 17.6°F > 1/2 mi
US 85 Gun Barrel 46.8 Dec 9, 2023, 12:26 AM Dry 26.2°F None None 15 mph 22 mph NW 19.4°F 80% 24.8°F > 1/2 mi
US 85 Four Corners 247.2 Dec 9, 2023, 12:26 AM Ice Warning 18.9°F None None 25 mph 34 mph NW 15.8°F 89% 19.4°F > 1/2 mi
WY 120 Meeteetse 61.5 Dec 8, 2023, 05:40 AM                      
WY 210 Wildcat Trail 21.52 Dec 9, 2023, 12:26 AM Ice Watch 18.3°F None 3 mph 11 mph E 12.2°F NaN% 15.8°F > 1/2 mi
WY 210 Hynds Lodge Road 24.55 Dec 9, 2023, 12:26 AM N/A   None None 7 mph 12 mph NW 12.2°F 83% 15.8°F > 1/2 mi
WY 22 Teton Pass 11.2 Dec 9, 2023, 12:26 AM Ice Watch 19.6°F Snow None NaN mph NaN mph N 10.4°F 90% 14.0°F > 1/2 mi
WY 220 Pathfinder Hill 80.1 Dec 9, 2023, 12:26 AM Dry 25.9°F None 5 mph 7 mph W 23.0°F 98% 23.0°F  
WY 230 Skyline 230 113.2 Dec 9, 2023, 12:26 AM N/A   None None NaN mph NaN mph N   NaN% 17.6°F < 1/4 mi
WY 258 Outer Drive 13.77 Dec 9, 2023, 12:26 AM Dry 34.2°F Snow None 2 mph 4 mph NW 21.2°F 75% 26.6°F > 1/2 mi
WY 28 New South Pass 41.4 Dec 9, 2023, 12:26 AM Dry 14.9°F None None 13 mph 18 mph NE 12.2°F 81% 15.8°F > 1/2 mi
WY 28 Lower Red Canyon 59.71 Dec 9, 2023, 12:26 AM Chemically Wet 25.3°F Snow None 2 mph 5 mph NW 19.4°F 88% 21.2°F > 1/2 mi
WY 296 Chief Joseph 32.96 Dec 9, 2023, 12:26 AM N/A   None None 9 mph 12 mph NW 6.8°F 80% 12.2°F > 1/2 mi
WY 372 Shute Creek 34 Dec 9, 2023, 12:26 AM N/A   None NaN mph NaN mph N   NaN%    
WY 387 Pine Tree Junction 131.79 Dec 9, 2023, 12:26 AM Dry 26.6°F Snow None 17 mph 22 mph N 23.0°F 90% 24.8°F > 1/2 mi
WY 487 Shirley Rim 37 Dec 9, 2023, 12:26 AM Dry 22.6°F None None 14 mph 19 mph N 14.0°F 78% 19.4°F > 1/2 mi
WY 59 Belle Fourche 87 Dec 9, 2023, 12:26 AM Dry 29.1°F None 11 mph 15 mph NW 23.0°F 84% 26.6°F  
WY 789 Beaver Rim 48.1 Dec 9, 2023, 12:26 AM     Snow None 4 mph 5 mph NW -27.4°F 9% 21.2°F > 1/2 mi

Contact Us
Copyright 2022-2023 Disclaimer Privacy Policy Media